createdAt,value
2022-12-17T00:00:45.688Z,1008.06
2022-12-17T00:01:45.630Z,1008.05
2022-12-17T00:02:45.738Z,1008.06
2022-12-17T00:03:45.782Z,1008.04
2022-12-17T00:04:45.610Z,1008.08
2022-12-17T00:05:45.580Z,1008.07
2022-12-17T00:06:45.570Z,1008.10
2022-12-17T00:07:45.550Z,1008.09
2022-12-17T00:08:45.550Z,1008.12
2022-12-17T00:09:50.101Z,1008.11
2022-12-17T00:10:45.522Z,1008.11
2022-12-17T00:11:45.509Z,1008.16
2022-12-17T00:12:45.492Z,1008.12
2022-12-17T00:13:45.489Z,1008.12
2022-12-17T00:14:45.489Z,1008.14
2022-12-17T00:15:45.498Z,1008.14
2022-12-17T00:16:45.449Z,1008.17
2022-12-17T00:17:45.430Z,1008.19
2022-12-17T00:18:45.418Z,1008.19
2022-12-17T00:19:45.427Z,1008.18
2022-12-17T00:20:45.404Z,1008.24
2022-12-17T00:21:45.384Z,1008.27
2022-12-17T00:22:45.379Z,1008.26
2022-12-17T00:23:45.378Z,1008.29
2022-12-17T00:24:45.347Z,1008.28
2022-12-17T00:25:45.389Z,1008.26
2022-12-17T00:26:45.318Z,1008.29
2022-12-17T00:27:45.297Z,1008.30
2022-12-17T00:28:45.314Z,1008.27
2022-12-17T00:29:45.277Z,1008.30
2022-12-17T00:30:45.318Z,1008.31
2022-12-17T00:31:45.338Z,1008.29
2022-12-17T00:32:45.257Z,1008.31
2022-12-17T00:33:45.265Z,1008.32
2022-12-17T00:34:45.226Z,1008.32
2022-12-17T00:35:45.236Z,1008.28
2022-12-17T00:36:45.197Z,1008.32
2022-12-17T00:37:45.205Z,1008.32
2022-12-17T00:38:45.194Z,1008.39
2022-12-17T00:39:45.162Z,1008.40
2022-12-17T00:40:45.165Z,1008.44
2022-12-17T00:41:45.134Z,1008.44
2022-12-17T00:42:45.174Z,1008.45
2022-12-17T00:43:45.145Z,1008.48
2022-12-17T00:44:45.105Z,1008.49
2022-12-17T00:45:45.095Z,1008.54
2022-12-17T00:46:45.122Z,1008.54
2022-12-17T00:47:45.060Z,1008.54
2022-12-17T00:48:45.061Z,1008.57
2022-12-17T00:49:45.115Z,1008.54
2022-12-17T00:50:45.053Z,1008.53
2022-12-17T00:51:45.020Z,1008.51
2022-12-17T00:52:45.003Z,1008.55
2022-12-17T00:53:44.992Z,1008.54
2022-12-17T00:54:45.056Z,1008.53
2022-12-17T00:55:44.953Z,1008.53
2022-12-17T00:56:44.971Z,1008.58
2022-12-17T00:57:44.953Z,1008.58
2022-12-17T00:58:44.932Z,1008.58
2022-12-17T00:59:44.923Z,1008.62
2022-12-17T01:00:44.938Z,1008.62
2022-12-17T01:01:45.132Z,1008.64
2022-12-17T01:02:45.031Z,1008.66
2022-12-17T01:03:44.862Z,1008.66
2022-12-17T01:04:44.853Z,1008.64
2022-12-17T01:05:44.841Z,1008.64
2022-12-17T01:06:44.851Z,1008.65
2022-12-17T01:07:44.811Z,1008.63
2022-12-17T01:08:44.802Z,1008.64
2022-12-17T01:09:44.790Z,1008.66
2022-12-17T01:10:44.782Z,1008.65
2022-12-17T01:11:44.790Z,1008.65
2022-12-17T01:12:44.753Z,1008.70
2022-12-17T01:13:44.741Z,1008.71
2022-12-17T01:14:44.728Z,1008.75
2022-12-17T01:15:44.722Z,1008.75
2022-12-17T01:16:44.756Z,1008.72
2022-12-17T01:17:44.689Z,1008.69
2022-12-17T01:18:44.710Z,1008.71
2022-12-17T01:19:44.668Z,1008.75
2022-12-17T01:20:44.668Z,1008.75
2022-12-17T01:21:44.658Z,1008.76
2022-12-17T01:22:44.632Z,1008.80
2022-12-17T01:23:44.626Z,1008.79
2022-12-17T01:24:44.610Z,1008.83
2022-12-17T01:25:44.603Z,1008.83
2022-12-17T01:26:44.637Z,1008.85
2022-12-17T01:27:44.577Z,1008.88
2022-12-17T01:28:44.560Z,1008.88
2022-12-17T01:29:44.558Z,1008.88
2022-12-17T01:30:44.527Z,1008.89
2022-12-17T01:31:44.612Z,1008.88
2022-12-17T01:32:44.516Z,1008.93
2022-12-17T01:33:44.507Z,1008.91
2022-12-17T01:34:44.478Z,1008.94
2022-12-17T01:35:44.474Z,1008.91
2022-12-17T01:36:44.487Z,1008.92
2022-12-17T01:37:44.460Z,1008.90
2022-12-17T01:38:44.446Z,1008.90
2022-12-17T01:39:44.420Z,1008.91
2022-12-17T01:40:44.414Z,1008.94
2022-12-17T01:41:44.426Z,1008.93
2022-12-17T01:42:44.398Z,1008.90
2022-12-17T01:43:44.377Z,1008.89
2022-12-17T01:44:44.376Z,1008.87
2022-12-17T01:45:44.411Z,1008.89
2022-12-17T01:46:44.346Z,1008.89
2022-12-17T01:47:44.333Z,1008.85
2022-12-17T01:48:44.315Z,1008.87
2022-12-17T01:49:44.323Z,1008.88
2022-12-17T01:50:44.295Z,1008.94
2022-12-17T01:51:44.276Z,1008.98
2022-12-17T01:52:44.285Z,1008.99
2022-12-17T01:53:44.253Z,1009.03
2022-12-17T01:54:44.244Z,1009.04
2022-12-17T01:55:44.228Z,1009.04
2022-12-17T01:56:44.237Z,1009.05
2022-12-17T01:57:44.248Z,1009.05
2022-12-17T01:58:44.194Z,1009.04
2022-12-17T01:59:44.191Z,1009.05
2022-12-17T02:00:44.253Z,1009.08
2022-12-17T02:01:44.420Z,1009.08
2022-12-17T02:02:44.287Z,1009.10
2022-12-17T02:03:44.123Z,1009.10
2022-12-17T02:04:44.113Z,1009.10
2022-12-17T02:05:44.142Z,1009.09
2022-12-17T02:06:44.092Z,1009.14
2022-12-17T02:07:44.150Z,1009.07
2022-12-17T02:08:44.062Z,1009.10
2022-12-17T02:09:44.091Z,1009.11
2022-12-17T02:10:44.046Z,1009.11
2022-12-17T02:11:44.021Z,1009.13
2022-12-17T02:12:44.114Z,1009.14
2022-12-17T02:13:44.016Z,1009.11
2022-12-17T02:14:43.994Z,1009.12
2022-12-17T02:15:43.974Z,1009.12
2022-12-17T02:16:44.079Z,1009.07
2022-12-17T02:17:43.952Z,1009.09
2022-12-17T02:18:43.962Z,1009.07
2022-12-17T02:19:43.934Z,1009.07
2022-12-17T02:20:43.923Z,1009.11
2022-12-17T02:21:43.919Z,1009.10
2022-12-17T02:22:43.895Z,1009.07
2022-12-17T02:23:43.892Z,1009.10
2022-12-17T02:24:43.871Z,1009.08
2022-12-17T02:25:43.867Z,1009.04
2022-12-17T02:26:43.850Z,1009.09
2022-12-17T02:27:43.842Z,1009.08
2022-12-17T02:28:43.842Z,1009.07
2022-12-17T02:29:43.890Z,1009.06
2022-12-17T02:30:43.795Z,1009.12
2022-12-17T02:31:43.802Z,1009.12
2022-12-17T02:32:43.787Z,1009.11
2022-12-17T02:33:44.369Z,1009.08
2022-12-17T02:34:43.741Z,1009.06
2022-12-17T02:35:43.731Z,1009.08
2022-12-17T02:36:43.710Z,1009.08
2022-12-17T02:37:43.699Z,1009.06
2022-12-17T02:38:43.688Z,1009.03
2022-12-17T02:39:43.703Z,1009.07
2022-12-17T02:40:43.658Z,1009.02
2022-12-17T02:41:43.657Z,1009.06
2022-12-17T02:42:43.638Z,1009.02
2022-12-17T02:43:43.629Z,1009.04
2022-12-17T02:44:43.627Z,1009.04
2022-12-17T02:45:43.665Z,1009.04
2022-12-17T02:46:43.587Z,1009.06
2022-12-17T02:47:43.605Z,1009.07
2022-12-17T02:48:43.563Z,1009.08
2022-12-17T02:49:43.567Z,1009.05
2022-12-17T02:50:43.536Z,1009.09
2022-12-17T02:51:43.528Z,1009.10
2022-12-17T02:52:43.507Z,1009.11
2022-12-17T02:53:43.508Z,1009.12
2022-12-17T02:54:43.518Z,1009.12
2022-12-17T02:55:43.478Z,1009.10
2022-12-17T02:56:43.466Z,1009.10
2022-12-17T02:57:44.133Z,1009.12
2022-12-17T02:58:43.449Z,1009.14
2022-12-17T02:59:43.466Z,1009.16
2022-12-17T03:00:43.480Z,1009.16
2022-12-17T03:01:43.506Z,1009.17
2022-12-17T03:02:43.551Z,1009.16
2022-12-17T03:03:48.686Z,1009.20
2022-12-17T03:04:44.374Z,1009.21
2022-12-17T03:05:45.360Z,1009.22
2022-12-17T03:06:43.377Z,1009.23
2022-12-17T03:07:43.335Z,1009.22
2022-12-17T03:08:43.385Z,1009.30
2022-12-17T03:09:43.302Z,1009.31
2022-12-17T03:10:43.313Z,1009.32
2022-12-17T03:11:43.285Z,1009.33
2022-12-17T03:12:43.261Z,1009.33
2022-12-17T03:13:43.255Z,1009.34
2022-12-17T03:14:43.248Z,1009.32
2022-12-17T03:15:43.253Z,1009.33
2022-12-17T03:16:43.239Z,1009.34
2022-12-17T03:17:43.203Z,1009.35
2022-12-17T03:18:43.193Z,1009.38
2022-12-17T03:19:43.184Z,1009.39
2022-12-17T03:20:43.182Z,1009.38
2022-12-17T03:21:43.143Z,1009.37
2022-12-17T03:22:43.140Z,1009.35
2022-12-17T03:23:43.132Z,1009.36
2022-12-17T03:24:43.113Z,1009.36
2022-12-17T03:25:43.119Z,1009.39
2022-12-17T03:26:43.084Z,1009.41
2022-12-17T03:27:43.094Z,1009.43
2022-12-17T03:28:43.081Z,1009.47
2022-12-17T03:29:43.061Z,1009.45
2022-12-17T03:30:48.515Z,1009.43
2022-12-17T03:31:44.080Z,1009.46
2022-12-17T03:32:43.020Z,1009.44
2022-12-17T03:33:43.013Z,1009.44
2022-12-17T03:34:42.995Z,1009.47
2022-12-17T03:35:43.003Z,1009.45
2022-12-17T03:36:42.973Z,1009.46
2022-12-17T03:37:42.962Z,1009.45
2022-12-17T03:38:42.941Z,1009.45
2022-12-17T03:39:42.933Z,1009.42
2022-12-17T03:40:42.933Z,1009.40
2022-12-17T03:41:42.911Z,1009.38
2022-12-17T03:42:42.881Z,1009.42
2022-12-17T03:43:42.879Z,1009.38
2022-12-17T03:44:42.871Z,1009.41
2022-12-17T03:45:42.939Z,1009.39
2022-12-17T03:46:42.838Z,1009.42
2022-12-17T03:47:42.869Z,1009.46
2022-12-17T03:48:42.825Z,1009.45
2022-12-17T03:49:42.808Z,1009.48
2022-12-17T03:50:42.816Z,1009.48
2022-12-17T03:51:42.789Z,1009.45
2022-12-17T03:52:42.789Z,1009.48
2022-12-17T03:53:42.760Z,1009.54
2022-12-17T03:54:42.742Z,1009.53
2022-12-17T03:55:42.735Z,1009.55
2022-12-17T03:56:42.740Z,1009.58
2022-12-17T03:57:42.725Z,1009.53
2022-12-17T03:58:42.691Z,1009.54
2022-12-17T03:59:42.727Z,1009.56
2022-12-17T04:00:42.668Z,1009.55
2022-12-17T04:01:42.873Z,1009.53
2022-12-17T04:02:42.864Z,1009.55
2022-12-17T04:03:42.693Z,1009.55
2022-12-17T04:04:42.618Z,1009.54
2022-12-17T04:05:42.599Z,1009.54
2022-12-17T04:06:42.606Z,1009.51
2022-12-17T04:07:42.597Z,1009.49
2022-12-17T04:08:42.571Z,1009.49
2022-12-17T04:09:42.567Z,1009.48
2022-12-17T04:10:42.546Z,1009.49
2022-12-17T04:11:42.527Z,1009.50
2022-12-17T04:12:42.516Z,1009.45
2022-12-17T04:13:42.958Z,1009.47
2022-12-17T04:14:42.504Z,1009.46
2022-12-17T04:15:42.516Z,1009.46
2022-12-17T04:16:42.465Z,1009.43
2022-12-17T04:17:42.495Z,1009.47
2022-12-17T04:18:42.468Z,1009.49
2022-12-17T04:19:42.445Z,1009.51
2022-12-17T04:20:42.417Z,1009.54
2022-12-17T04:21:42.408Z,1009.58
2022-12-17T04:22:42.406Z,1009.60
2022-12-17T04:23:42.387Z,1009.62
2022-12-17T04:24:42.384Z,1009.67
2022-12-17T04:25:42.355Z,1009.65
2022-12-17T04:26:42.353Z,1009.65
2022-12-17T04:27:42.354Z,1009.63
2022-12-17T04:28:42.323Z,1009.69
2022-12-17T04:29:42.323Z,1009.68
2022-12-17T04:30:42.333Z,1009.70
2022-12-17T04:31:42.284Z,1009.69
2022-12-17T04:32:42.282Z,1009.71
2022-12-17T04:33:42.255Z,1009.71
2022-12-17T04:34:42.273Z,1009.71
2022-12-17T04:35:42.234Z,1009.73
2022-12-17T04:36:42.233Z,1009.79
2022-12-17T04:37:42.224Z,1009.81
2022-12-17T04:38:42.202Z,1009.79
2022-12-17T04:39:42.193Z,1009.79
2022-12-17T04:40:42.193Z,1009.76
2022-12-17T04:41:42.159Z,1009.80
2022-12-17T04:42:42.152Z,1009.82
2022-12-17T04:43:42.141Z,1009.83
2022-12-17T04:44:42.130Z,1009.83
2022-12-17T04:45:42.122Z,1009.83
2022-12-17T04:46:42.139Z,1009.81
2022-12-17T04:47:42.103Z,1009.80
2022-12-17T04:48:42.082Z,1009.82
2022-12-17T04:49:42.060Z,1009.80
2022-12-17T04:50:42.072Z,1009.84
2022-12-17T04:51:42.044Z,1009.83
2022-12-17T04:52:42.031Z,1009.85
2022-12-17T04:53:42.024Z,1009.85
2022-12-17T04:54:42.102Z,1009.90
2022-12-17T04:55:42.009Z,1009.90
2022-12-17T04:56:41.982Z,1009.93
2022-12-17T04:57:41.971Z,1009.91
2022-12-17T04:58:41.951Z,1009.96
2022-12-17T04:59:41.940Z,1009.96
2022-12-17T05:00:41.940Z,1010.00
2022-12-17T05:01:42.111Z,1009.96
2022-12-17T05:02:42.955Z,1009.94
2022-12-17T05:03:42.018Z,1009.95
2022-12-17T05:04:41.872Z,1009.95
2022-12-17T05:05:41.878Z,1009.95
2022-12-17T05:06:41.859Z,1009.99
2022-12-17T05:07:41.850Z,1009.95
2022-12-17T05:08:41.842Z,1009.93
2022-12-17T05:09:41.824Z,1009.96
2022-12-17T05:10:41.836Z,1009.97
2022-12-17T05:11:41.797Z,1009.99
2022-12-17T05:12:41.788Z,1010.00
2022-12-17T05:13:41.767Z,1009.95
2022-12-17T05:14:41.758Z,1009.99
2022-12-17T05:15:41.834Z,1009.98
2022-12-17T05:16:41.728Z,1010.00
2022-12-17T05:17:41.757Z,1010.02
2022-12-17T05:18:41.709Z,1010.07
2022-12-17T05:19:41.705Z,1010.07
2022-12-17T05:20:41.697Z,1010.10
2022-12-17T05:21:41.696Z,1010.17
2022-12-17T05:22:41.659Z,1010.13
2022-12-17T05:23:41.660Z,1010.15
2022-12-17T05:24:41.626Z,1010.17
2022-12-17T05:25:41.638Z,1010.15
2022-12-17T05:26:41.612Z,1010.14
2022-12-17T05:27:41.606Z,1010.12
2022-12-17T05:28:41.578Z,1010.09
2022-12-17T05:29:41.566Z,1010.12
2022-12-17T05:30:41.580Z,1010.12
2022-12-17T05:31:41.597Z,1010.11
2022-12-17T05:32:41.555Z,1010.16
2022-12-17T05:33:41.509Z,1010.13
2022-12-17T05:34:41.508Z,1010.20
2022-12-17T05:35:41.505Z,1010.19
2022-12-17T05:36:41.490Z,1010.21
2022-12-17T05:37:41.476Z,1010.23
2022-12-17T05:38:41.458Z,1010.23
2022-12-17T05:39:41.446Z,1010.30
2022-12-17T05:40:41.444Z,1010.31
2022-12-17T05:41:41.426Z,1010.27
2022-12-17T05:42:41.406Z,1010.28
2022-12-17T05:43:41.397Z,1010.30
2022-12-17T05:44:41.392Z,1010.30
2022-12-17T05:45:41.394Z,1010.26
2022-12-17T05:46:41.466Z,1010.24
2022-12-17T05:47:41.354Z,1010.27
2022-12-17T05:48:41.343Z,1010.25
2022-12-17T05:49:41.326Z,1010.25
2022-12-17T05:50:41.323Z,1010.26
2022-12-17T05:51:41.328Z,1010.27
2022-12-17T05:52:41.292Z,1010.28
2022-12-17T05:53:41.273Z,1010.30
2022-12-17T05:54:41.272Z,1010.26
2022-12-17T05:55:41.253Z,1010.26
2022-12-17T05:56:41.254Z,1010.30
2022-12-17T05:57:41.232Z,1010.32
2022-12-17T05:58:41.213Z,1010.35
2022-12-17T05:59:41.198Z,1010.37
2022-12-17T06:00:41.249Z,1010.41
2022-12-17T06:01:41.236Z,1010.39
2022-12-17T06:02:41.299Z,1010.38
2022-12-17T06:03:41.875Z,1010.47
2022-12-17T06:04:41.142Z,1010.46
2022-12-17T06:05:41.130Z,1010.48
2022-12-17T06:06:41.121Z,1010.47
2022-12-17T06:07:41.112Z,1010.45
2022-12-17T06:08:41.091Z,1010.50
2022-12-17T06:09:41.083Z,1010.48
2022-12-17T06:10:41.077Z,1010.51
2022-12-17T06:11:41.061Z,1010.47
2022-12-17T06:12:41.052Z,1010.51
2022-12-17T06:13:41.028Z,1010.52
2022-12-17T06:14:41.023Z,1010.51
2022-12-17T06:15:41.106Z,1010.52
2022-12-17T06:16:41.011Z,1010.54
2022-12-17T06:17:40.982Z,1010.53
2022-12-17T06:18:40.970Z,1010.55
2022-12-17T06:19:40.958Z,1010.56
2022-12-17T06:20:40.958Z,1010.58
2022-12-17T06:21:40.949Z,1010.63
2022-12-17T06:22:40.920Z,1010.67
2022-12-17T06:23:40.907Z,1010.66
2022-12-17T06:24:45.690Z,1010.67
2022-12-17T06:25:41.888Z,1010.70
2022-12-17T06:26:40.870Z,1010.71
2022-12-17T06:27:40.892Z,1010.72
2022-12-17T06:28:40.848Z,1010.73
2022-12-17T06:29:40.836Z,1010.69
2022-12-17T06:30:40.819Z,1010.69
2022-12-17T06:31:40.869Z,1010.73
2022-12-17T06:32:40.808Z,1010.73
2022-12-17T06:33:40.788Z,1010.76
2022-12-17T06:34:40.779Z,1010.77
2022-12-17T06:35:40.756Z,1010.78
2022-12-17T06:36:40.748Z,1010.85
2022-12-17T06:37:40.745Z,1010.82
2022-12-17T06:38:40.726Z,1010.86
2022-12-17T06:39:40.708Z,1010.84
2022-12-17T06:40:40.698Z,1010.86
2022-12-17T06:41:40.692Z,1010.84
2022-12-17T06:42:40.679Z,1010.84
2022-12-17T06:43:40.655Z,1010.84
2022-12-17T06:44:40.652Z,1010.83
2022-12-17T06:45:40.636Z,1010.87
2022-12-17T06:46:40.655Z,1010.87
2022-12-17T06:47:40.624Z,1010.83
2022-12-17T06:48:40.597Z,1010.85
2022-12-17T06:49:40.587Z,1010.88
2022-12-17T06:50:40.584Z,1010.93
2022-12-17T06:51:40.563Z,1010.90
2022-12-17T06:52:40.577Z,1010.90
2022-12-17T06:53:40.536Z,1010.93
2022-12-17T06:54:40.525Z,1010.92
2022-12-17T06:55:40.555Z,1010.90
2022-12-17T06:56:40.498Z,1010.95
2022-12-17T06:57:42.499Z,1010.93
2022-12-17T06:58:40.485Z,1010.94
2022-12-17T06:59:40.457Z,1010.97
2022-12-17T07:00:40.493Z,1010.99
2022-12-17T07:01:40.738Z,1010.99
2022-12-17T07:02:40.544Z,1011.00
2022-12-17T07:03:40.416Z,1011.05
2022-12-17T07:04:40.405Z,1011.08
2022-12-17T07:05:40.383Z,1011.10
2022-12-17T07:06:40.378Z,1011.14
2022-12-17T07:07:40.374Z,1011.13
2022-12-17T07:08:40.354Z,1011.17
2022-12-17T07:09:40.334Z,1011.17
2022-12-17T07:10:40.355Z,1011.17
2022-12-17T07:11:40.376Z,1011.19
2022-12-17T07:12:40.343Z,1011.20
2022-12-17T07:13:40.566Z,1011.26
2022-12-17T07:14:40.295Z,1011.25
2022-12-17T07:15:40.279Z,1011.29
2022-12-17T07:16:40.286Z,1011.29
2022-12-17T07:17:40.254Z,1011.29
2022-12-17T07:18:40.233Z,1011.30
2022-12-17T07:19:40.217Z,1011.32
2022-12-17T07:20:40.223Z,1011.30
2022-12-17T07:21:40.202Z,1011.32
2022-12-17T07:22:40.204Z,1011.36
2022-12-17T07:23:40.167Z,1011.39
2022-12-17T07:24:40.162Z,1011.43
2022-12-17T07:25:45.704Z,1011.40
2022-12-17T07:26:41.133Z,1011.46
2022-12-17T07:27:40.133Z,1011.47
2022-12-17T07:28:40.223Z,1011.53
2022-12-17T07:29:40.101Z,1011.53
2022-12-17T07:30:40.091Z,1011.52
2022-12-17T07:31:40.146Z,1011.54
2022-12-17T07:32:40.085Z,1011.50
2022-12-17T07:33:40.042Z,1011.53
2022-12-17T07:34:40.031Z,1011.51
2022-12-17T07:35:40.020Z,1011.52
2022-12-17T07:36:40.010Z,1011.49
2022-12-17T07:37:40.013Z,1011.51
2022-12-17T07:38:40.011Z,1011.51
2022-12-17T07:39:39.972Z,1011.53
2022-12-17T07:40:39.972Z,1011.55
2022-12-17T07:41:39.951Z,1011.58
2022-12-17T07:42:39.950Z,1011.60
2022-12-17T07:43:40.328Z,1011.62
2022-12-17T07:44:39.912Z,1011.60
2022-12-17T07:45:39.955Z,1011.64
2022-12-17T07:46:39.924Z,1011.62
2022-12-17T07:47:39.889Z,1011.63
2022-12-17T07:48:39.908Z,1011.65
2022-12-17T07:49:39.855Z,1011.70
2022-12-17T07:50:39.841Z,1011.67
2022-12-17T07:51:39.830Z,1011.70
2022-12-17T07:52:39.819Z,1011.74
2022-12-17T07:53:39.824Z,1011.74
2022-12-17T07:54:39.788Z,1011.76
2022-12-17T07:55:39.778Z,1011.78
2022-12-17T07:56:39.770Z,1011.76
2022-12-17T07:57:39.750Z,1011.81
2022-12-17T07:58:39.758Z,1011.83
2022-12-17T07:59:39.734Z,1011.84
2022-12-17T08:00:42.414Z,1011.83
2022-12-17T08:01:40.848Z,1011.84
2022-12-17T08:02:39.836Z,1011.80
2022-12-17T08:03:40.316Z,1011.86
2022-12-17T08:04:39.667Z,1011.89
2022-12-17T08:05:39.627Z,1011.91
2022-12-17T08:06:39.651Z,1011.89
2022-12-17T08:07:39.628Z,1011.90
2022-12-17T08:08:39.634Z,1011.90
2022-12-17T08:09:39.603Z,1011.91
2022-12-17T08:10:39.592Z,1011.93
2022-12-17T08:11:39.575Z,1011.98
2022-12-17T08:12:39.556Z,1011.95
2022-12-17T08:13:39.777Z,1011.92
2022-12-17T08:14:39.547Z,1011.91
2022-12-17T08:15:39.526Z,1011.95
2022-12-17T08:16:39.559Z,1011.94
2022-12-17T08:17:39.590Z,1011.99
2022-12-17T08:18:39.569Z,1011.98
2022-12-17T08:19:39.517Z,1012.03
2022-12-17T08:20:39.519Z,1012.04
2022-12-17T08:21:39.495Z,1012.03
2022-12-17T08:22:39.464Z,1012.10
2022-12-17T08:23:39.750Z,1012.11
2022-12-17T08:24:39.482Z,1012.15
2022-12-17T08:25:39.424Z,1012.13
2022-12-17T08:26:42.090Z,1012.18
2022-12-17T08:27:40.374Z,1012.18
2022-12-17T08:28:50.630Z,1012.17
2022-12-17T08:29:40.367Z,1012.15
2022-12-17T08:30:39.434Z,1012.18
2022-12-17T08:31:39.365Z,1012.18
2022-12-17T08:32:39.325Z,1012.16
2022-12-17T08:33:39.501Z,1012.19
2022-12-17T08:34:39.306Z,1012.22
2022-12-17T08:35:39.326Z,1012.21
2022-12-17T08:36:39.265Z,1012.25
2022-12-17T08:37:39.265Z,1012.24
2022-12-17T08:38:39.302Z,1012.28
2022-12-17T08:39:39.343Z,1012.27
2022-12-17T08:40:39.287Z,1012.26
2022-12-17T08:41:39.293Z,1012.27
2022-12-17T08:42:39.204Z,1012.30
2022-12-17T08:43:39.662Z,1012.33
2022-12-17T08:44:39.184Z,1012.31
2022-12-17T08:45:39.214Z,1012.31
2022-12-17T08:46:39.161Z,1012.32
2022-12-17T08:47:39.141Z,1012.30
2022-12-17T08:48:39.132Z,1012.33
2022-12-17T08:49:39.141Z,1012.34
2022-12-17T08:50:39.100Z,1012.31
2022-12-17T08:51:39.202Z,1012.33
2022-12-17T08:52:39.072Z,1012.33
2022-12-17T08:53:39.363Z,1012.38
2022-12-17T08:54:39.046Z,1012.40
2022-12-17T08:55:39.071Z,1012.41
2022-12-17T08:56:39.030Z,1012.43
2022-12-17T08:57:39.066Z,1012.47
2022-12-17T08:58:39.000Z,1012.42
2022-12-17T08:59:38.992Z,1012.44
2022-12-17T09:00:38.988Z,1012.43
2022-12-17T09:01:39.074Z,1012.45
2022-12-17T09:02:39.200Z,1012.42
2022-12-17T09:03:39.391Z,1012.42
2022-12-17T09:04:38.929Z,1012.38
2022-12-17T09:05:38.960Z,1012.41
2022-12-17T09:06:39.502Z,1012.39
2022-12-17T09:07:38.890Z,1012.40
2022-12-17T09:08:38.871Z,1012.46
2022-12-17T09:09:38.872Z,1012.45
2022-12-17T09:10:39.446Z,1012.48
2022-12-17T09:11:38.870Z,1012.48
2022-12-17T09:12:38.827Z,1012.52
2022-12-17T09:13:39.198Z,1012.51
2022-12-17T09:14:38.809Z,1012.47
2022-12-17T09:15:38.810Z,1012.48
2022-12-17T09:16:38.838Z,1012.51
2022-12-17T09:17:38.769Z,1012.48
2022-12-17T09:18:38.759Z,1012.45
2022-12-17T09:19:38.748Z,1012.48
2022-12-17T09:20:38.778Z,1012.48
2022-12-17T09:21:38.741Z,1012.50
2022-12-17T09:22:38.728Z,1012.49
2022-12-17T09:23:38.999Z,1012.48
2022-12-17T09:24:38.676Z,1012.51
2022-12-17T09:25:38.698Z,1012.46
2022-12-17T09:26:38.655Z,1012.47
2022-12-17T09:27:38.647Z,1012.44
2022-12-17T09:28:38.627Z,1012.49
2022-12-17T09:29:38.639Z,1012.49
2022-12-17T09:30:38.702Z,1012.55
2022-12-17T09:31:38.604Z,1012.58
2022-12-17T09:32:38.598Z,1012.55
2022-12-17T09:33:38.984Z,1012.56
2022-12-17T09:34:38.556Z,1012.59
2022-12-17T09:35:38.563Z,1012.59
2022-12-17T09:36:38.536Z,1012.58
2022-12-17T09:37:38.526Z,1012.62
2022-12-17T09:38:38.505Z,1012.61
2022-12-17T09:39:38.498Z,1012.61
2022-12-17T09:40:38.516Z,1012.61
2022-12-17T09:41:38.486Z,1012.62
2022-12-17T09:42:38.462Z,1012.59
2022-12-17T09:43:38.860Z,1012.57
2022-12-17T09:44:38.508Z,1012.59
2022-12-17T09:45:38.426Z,1012.61
2022-12-17T09:46:38.531Z,1012.58
2022-12-17T09:47:38.402Z,1012.56
2022-12-17T09:48:38.385Z,1012.61
2022-12-17T09:49:38.389Z,1012.56
2022-12-17T09:50:38.374Z,1012.59
2022-12-17T09:51:38.407Z,1012.62
2022-12-17T09:52:38.335Z,1012.60
2022-12-17T09:53:38.609Z,1012.58
2022-12-17T09:54:38.304Z,1012.64
2022-12-17T09:55:38.333Z,1012.62
2022-12-17T09:56:38.310Z,1012.57
2022-12-17T09:57:38.287Z,1012.57
2022-12-17T09:58:38.254Z,1012.56
2022-12-17T09:59:38.251Z,1012.55
2022-12-17T10:00:38.244Z,1012.60
2022-12-17T10:01:38.379Z,1012.61
2022-12-17T10:02:38.432Z,1012.64
2022-12-17T10:03:38.591Z,1012.60
2022-12-17T10:04:38.281Z,1012.66
2022-12-17T10:05:38.192Z,1012.62
2022-12-17T10:06:38.163Z,1012.64
2022-12-17T10:07:38.160Z,1012.62
2022-12-17T10:08:38.143Z,1012.62
2022-12-17T10:09:38.153Z,1012.62
2022-12-17T10:10:38.114Z,1012.64
2022-12-17T10:11:38.242Z,1012.66
2022-12-17T10:12:38.082Z,1012.66
2022-12-17T10:13:38.362Z,1012.68
2022-12-17T10:14:38.071Z,1012.66
2022-12-17T10:15:38.145Z,1012.71
2022-12-17T10:16:38.064Z,1012.72
2022-12-17T10:17:38.031Z,1012.70
2022-12-17T10:18:38.033Z,1012.73
2022-12-17T10:19:38.011Z,1012.70
2022-12-17T10:20:37.994Z,1012.73
2022-12-17T10:21:38.009Z,1012.71
2022-12-17T10:22:39.446Z,1012.70
2022-12-17T10:23:38.435Z,1012.76
2022-12-17T10:24:37.951Z,1012.77
2022-12-17T10:25:37.928Z,1012.76
2022-12-17T10:26:37.946Z,1012.77
2022-12-17T10:27:37.911Z,1012.77
2022-12-17T10:28:37.902Z,1012.75
2022-12-17T10:29:40.170Z,1012.80
2022-12-17T10:30:38.949Z,1012.83
2022-12-17T10:31:38.006Z,1012.85
2022-12-17T10:32:37.848Z,1012.86
2022-12-17T10:33:38.068Z,1012.89
2022-12-17T10:34:37.829Z,1012.95
2022-12-17T10:35:37.810Z,1012.94
2022-12-17T10:36:37.860Z,1012.89
2022-12-17T10:37:37.791Z,1012.87
2022-12-17T10:38:37.812Z,1012.91
2022-12-17T10:39:37.779Z,1012.91
2022-12-17T10:40:37.748Z,1012.92
2022-12-17T10:41:37.739Z,1012.92
2022-12-17T10:42:37.737Z,1012.92
2022-12-17T10:43:38.057Z,1012.94
2022-12-17T10:44:37.698Z,1012.93
2022-12-17T10:45:37.689Z,1012.96
2022-12-17T10:46:37.830Z,1012.93
2022-12-17T10:47:37.679Z,1012.93
2022-12-17T10:48:37.658Z,1012.92
2022-12-17T10:49:37.638Z,1012.96
2022-12-17T10:50:37.626Z,1012.99
2022-12-17T10:51:37.628Z,1012.98
2022-12-17T10:52:37.618Z,1012.96
2022-12-17T10:53:37.860Z,1012.97
2022-12-17T10:54:37.565Z,1012.96
2022-12-17T10:55:37.577Z,1013.00
2022-12-17T10:56:37.558Z,1013.06
2022-12-17T10:57:37.554Z,1013.00
2022-12-17T10:58:37.527Z,1013.01
2022-12-17T10:59:37.515Z,1013.02
2022-12-17T11:00:37.498Z,1013.02
2022-12-17T11:01:37.633Z,1013.03
2022-12-17T11:02:37.643Z,1013.00
2022-12-17T11:03:37.878Z,1013.00
2022-12-17T11:04:37.483Z,1012.99
2022-12-17T11:05:37.526Z,1013.03
2022-12-17T11:06:42.042Z,1013.02
2022-12-17T11:07:38.441Z,1013.01
2022-12-17T11:08:37.754Z,1013.02
2022-12-17T11:09:37.398Z,1013.05
2022-12-17T11:10:37.375Z,1013.07
2022-12-17T11:11:37.376Z,1013.08
2022-12-17T11:12:37.365Z,1013.07
2022-12-17T11:13:37.739Z,1013.09
2022-12-17T11:14:37.335Z,1013.09
2022-12-17T11:15:37.405Z,1013.10
2022-12-17T11:16:37.324Z,1013.15
2022-12-17T11:17:37.315Z,1013.11
2022-12-17T11:18:37.282Z,1013.18
2022-12-17T11:19:37.308Z,1013.10
2022-12-17T11:20:37.253Z,1013.13
2022-12-17T11:21:37.265Z,1013.10
2022-12-17T11:22:37.284Z,1013.04
2022-12-17T11:23:37.722Z,1013.05
2022-12-17T11:24:37.213Z,1012.97
2022-12-17T11:25:37.202Z,1013.02
2022-12-17T11:26:37.181Z,1013.01
2022-12-17T11:27:37.214Z,1013.04
2022-12-17T11:28:37.152Z,1013.04
2022-12-17T11:29:37.153Z,1013.09
2022-12-17T11:30:37.131Z,1013.03
2022-12-17T11:31:37.190Z,1013.10
2022-12-17T11:32:37.172Z,1013.05
2022-12-17T11:33:37.613Z,1013.13
2022-12-17T11:34:37.082Z,1013.11
2022-12-17T11:35:37.072Z,1013.10
2022-12-17T11:36:39.214Z,1013.11
2022-12-17T11:37:37.068Z,1013.13
2022-12-17T11:38:37.547Z,1013.15
2022-12-17T11:39:37.024Z,1013.16
2022-12-17T11:40:37.010Z,1013.17
2022-12-17T11:41:37.000Z,1013.16
2022-12-17T11:42:37.000Z,1013.12
2022-12-17T11:43:36.980Z,1013.10
2022-12-17T11:44:38.499Z,1013.06
2022-12-17T11:45:36.991Z,1013.06
2022-12-17T11:46:37.006Z,1013.06
2022-12-17T11:47:36.938Z,1013.02
2022-12-17T11:48:37.265Z,1013.03
2022-12-17T11:49:36.907Z,1013.05
2022-12-17T11:50:36.870Z,1013.05
2022-12-17T11:51:36.903Z,1013.03
2022-12-17T11:52:36.886Z,1013.08
2022-12-17T11:53:36.873Z,1013.09
2022-12-17T11:54:36.852Z,1013.10
2022-12-17T11:55:36.846Z,1013.12
2022-12-17T11:56:36.831Z,1013.07
2022-12-17T11:57:36.841Z,1013.04
2022-12-17T11:58:37.275Z,1013.05
2022-12-17T11:59:36.807Z,1013.05
2022-12-17T12:00:36.765Z,1013.06
2022-12-17T12:01:36.827Z,1013.06
2022-12-17T12:02:36.785Z,1013.07
2022-12-17T12:03:36.927Z,1013.07
2022-12-17T12:04:36.769Z,1013.10
2022-12-17T12:05:36.697Z,1013.07